Time;durP1;ratioP1;P1;durP2;ratioP2;P2;SDS_P1;SDS_P2;PMS_P1;PMS_P2;Temp;Humidity;BMP_temperature;BMP_pressure;BME280_temperature;BME280_humidity;BME280_pressure;Samples;Min_cycle;Max_cycle;Signal;HPM_P1;HPM_P2
2022/07/05 00:02:18;;;;;;;3.43;1.23;;;16.00;99.90;;;;;;5037146;28;20176;-77
2022/07/05 00:04:43;;;;;;;6.23;1.80;;;16.00;99.90;;;;;;5018944;28;20180;-77
2022/07/05 00:07:18;;;;;;;1.50;1.13;;;16.00;99.90;;;;;;5036332;28;20203;-77
2022/07/05 00:09:45;;;;;;;2.03;1.30;;;16.00;99.90;;;;;;5036605;28;20198;-77
2022/07/05 00:12:13;;;;;;;2.00;1.30;;;15.90;99.90;;;;;;5018840;28;20246;-77
2022/07/05 00:14:39;;;;;;;1.90;1.13;;;15.90;99.90;;;;;;5018767;28;20231;-77
2022/07/05 00:17:05;;;;;;;4.80;1.23;;;15.90;99.90;;;;;;5018518;28;20172;-77
2022/07/05 00:19:31;;;;;;;2.37;1.07;;;15.90;99.90;;;;;;5036371;28;20196;-77
2022/07/05 00:21:57;;;;;;;2.60;1.50;;;15.90;99.90;;;;;;5036377;28;20724;-76
2022/07/05 00:24:23;;;;;;;1.60;1.20;;;15.80;99.90;;;;;;5036193;28;20222;-77
2022/07/05 00:26:48;;;;;;;3.60;2.20;;;15.80;99.90;;;;;;5036406;28;20208;-77
2022/07/05 00:29:14;;;;;;;2.43;1.40;;;15.80;99.90;;;;;;5036111;28;20219;-77
2022/07/05 00:31:40;;;;;;;3.20;1.40;;;15.80;99.90;;;;;;5036051;28;20262;-77
2022/07/05 00:34:05;;;;;;;1.93;1.33;;;15.80;99.90;;;;;;5018471;28;20182;-77
2022/07/05 00:36:31;;;;;;;7.10;1.67;;;15.70;99.90;;;;;;5036169;28;20177;-77
2022/07/05 00:38:56;;;;;;;2.07;1.37;;;15.70;99.90;;;;;;5018382;28;20550;-77
2022/07/05 00:41:22;;;;;;;4.20;1.77;;;15.70;99.90;;;;;;5036181;28;20180;-77
2022/07/05 00:43:57;;;;;;;2.63;1.40;;;15.60;99.90;;;;;;5018412;28;20212;-77
2022/07/05 00:46:23;;;;;;;4.03;1.53;;;15.60;99.90;;;;;;5018574;28;20179;-77
2022/07/05 00:48:49;;;;;;;2.27;1.50;;;15.60;99.90;;;;;;5018189;28;20204;-77
2022/07/05 00:51:14;;;;;;;2.23;1.37;;;15.60;99.90;;;;;;5018443;28;20179;-77
2022/07/05 00:53:40;;;;;;;3.97;1.60;;;15.60;99.90;;;;;;5036493;28;20238;-78
2022/07/05 00:56:06;;;;;;;1.33;1.17;;;15.50;99.90;;;;;;5018681;28;20179;-77
2022/07/05 00:58:33;;;;;;;4.77;1.57;;;15.50;99.90;;;;;;5035625;28;20207;-78
2022/07/05 01:01:01;;;;;;;3.17;1.43;;;15.50;99.90;;;;;;5036453;28;20172;-77
2022/07/05 01:03:27;;;;;;;1.47;1.00;;;15.50;99.90;;;;;;5018412;28;20658;-77
2022/07/05 01:05:53;;;;;;;5.90;1.60;;;15.50;99.90;;;;;;5018600;28;20169;-78
2022/07/05 01:08:20;;;;;;;2.30;1.20;;;15.40;99.90;;;;;;5037086;28;20196;-78
2022/07/05 01:10:47;;;;;;;3.27;1.37;;;15.40;99.90;;;;;;5037954;28;20200;-77
2022/07/05 01:13:13;;;;;;;2.20;1.47;;;15.40;99.90;;;;;;5038094;28;20701;-77
2022/07/05 01:15:40;;;;;;;2.57;1.50;;;15.40;99.90;;;;;;5035681;28;20171;-76
2022/07/05 01:18:07;;;;;;;3.23;1.30;;;15.40;99.90;;;;;;5017681;28;20180;-77
2022/07/05 01:20:32;;;;;;;1.87;1.50;;;15.30;99.90;;;;;;5017329;28;20613;-77
2022/07/05 01:23:04;;;;;;;3.37;1.50;;;15.40;99.90;;;;;;5017500;28;20187;-77
2022/07/05 01:25:31;;;;;;;2.57;1.40;;;15.30;99.90;;;;;;5035193;28;20571;-77
2022/07/05 01:27:58;;;;;;;5.27;1.50;;;15.30;99.90;;;;;;5017628;28;20591;-76
2022/07/05 01:30:24;;;;;;;3.27;1.50;;;15.30;99.90;;;;;;5034978;28;20203;-77
2022/07/05 01:32:50;;;;;;;2.03;1.50;;;15.40;99.90;;;;;;5035133;28;20255;-77
2022/07/05 01:35:20;;;;;;;1.63;1.30;;;15.30;99.90;;;;;;5017415;28;20203;-77
2022/07/05 01:37:47;;;;;;;2.67;1.23;;;15.30;99.90;;;;;;5034978;28;20168;-77
2022/07/05 01:40:13;;;;;;;2.63;1.30;;;15.30;99.90;;;;;;5034785;28;20199;-77
2022/07/05 01:42:38;;;;;;;1.73;1.53;;;15.40;99.90;;;;;;5035322;28;20168;-77
2022/07/05 01:45:05;;;;;;;2.63;1.50;;;15.20;99.90;;;;;;5034838;28;20227;-77
2022/07/05 01:47:35;;;;;;;1.73;1.60;;;15.30;99.90;;;;;;5035173;28;20203;-77
2022/07/05 01:50:04;;;;;;;3.30;1.93;;;15.20;99.90;;;;;;5034552;28;20558;-77
2022/07/05 01:52:31;;;;;;;1.83;1.40;;;15.20;99.90;;;;;;5034904;28;20532;-77
2022/07/05 01:54:58;;;;;;;3.53;1.50;;;15.10;99.90;;;;;;5016815;28;20173;-77
2022/07/05 01:57:23;;;;;;;2.23;1.60;;;15.10;99.90;;;;;;5016943;28;20179;-77
2022/07/05 01:59:49;;;;;;;1.53;1.43;;;15.00;99.90;;;;;;5034682;28;20242;-77
2022/07/05 02:02:15;;;;;;;1.60;1.50;;;15.00;99.90;;;;;;5017004;28;20684;-77
2022/07/05 02:04:41;;;;;;;2.10;1.50;;;15.00;99.90;;;;;;5034410;28;20643;-77
2022/07/05 02:07:08;;;;;;;2.17;1.40;;;15.00;99.90;;;;;;5034476;28;20299;-77
2022/07/05 02:09:34;;;;;;;3.07;1.23;;;14.90;99.90;;;;;;5033805;28;20685;-76
2022/07/05 02:12:02;;;;;;;2.60;1.33;;;14.90;99.90;;;;;;5033753;28;20169;-77
2022/07/05 02:14:28;;;;;;;3.63;1.70;;;14.90;99.90;;;;;;5034305;28;20183;-77
2022/07/05 02:16:53;;;;;;;4.60;1.93;;;14.90;99.90;;;;;;5034523;28;20259;-77
2022/07/05 02:19:19;;;;;;;1.87;1.53;;;14.80;99.90;;;;;;5034437;28;20239;-76
2022/07/05 02:21:44;;;;;;;3.50;1.40;;;14.80;99.90;;;;;;5034072;28;20168;-76
2022/07/05 02:24:10;;;;;;;1.53;1.43;;;14.90;99.90;;;;;;5016330;28;20177;-77
2022/07/05 02:26:35;;;;;;;2.63;1.53;;;14.80;99.90;;;;;;5034034;28;20203;-77
2022/07/05 02:29:03;;;;;;;1.30;1.20;;;14.90;99.90;;;;;;5033751;28;20204;-77
2022/07/05 02:31:28;;;;;;;2.47;1.70;;;14.80;99.90;;;;;;5016072;28;20259;-77
2022/07/05 02:33:54;;;;;;;1.93;1.33;;;14.80;99.90;;;;;;5033882;28;20732;-77
2022/07/05 02:36:20;;;;;;;1.50;1.40;;;14.80;99.90;;;;;;5033761;28;20538;-77
2022/07/05 02:38:45;;;;;;;4.00;1.20;;;14.70;99.90;;;;;;5033738;28;20180;-76
2022/07/05 02:41:12;;;;;;;2.97;1.60;;;14.60;99.90;;;;;;5034216;28;20264;-77
2022/07/05 02:43:38;;;;;;;3.23;1.50;;;14.50;99.90;;;;;;5033838;28;20545;-77
2022/07/05 02:46:05;;;;;;;1.57;1.30;;;14.50;99.90;;;;;;5016129;28;20651;-77
2022/07/05 02:48:31;;;;;;;2.27;1.50;;;14.50;99.90;;;;;;5015663;28;20299;-76
2022/07/05 02:50:57;;;;;;;2.10;1.80;;;14.50;99.90;;;;;;5015585;28;20172;-77
2022/07/05 02:53:23;;;;;;;3.70;1.63;;;14.50;99.90;;;;;;5033194;28;20255;-77
2022/07/05 02:55:49;;;;;;;2.40;1.67;;;14.50;99.90;;;;;;5033156;28;20200;-77
2022/07/05 02:58:16;;;;;;;1.77;1.40;;;14.60;99.90;;;;;;5033146;28;20215;-76
2022/07/05 03:00:43;;;;;;;2.00;1.67;;;14.50;99.90;;;;;;5032945;28;20196;-77
2022/07/05 03:03:08;;;;;;;2.77;1.70;;;14.50;99.90;;;;;;5033105;28;20524;-77
2022/07/05 03:05:34;;;;;;;1.97;1.27;;;14.40;99.90;;;;;;5033072;28;20179;-76
2022/07/05 03:08:00;;;;;;;2.33;1.60;;;14.40;99.90;;;;;;5015167;28;20214;-77
2022/07/05 03:10:25;;;;;;;4.67;1.60;;;14.40;99.90;;;;;;5032872;28;20188;-77
2022/07/05 03:12:51;;;;;;;3.60;1.80;;;14.30;99.90;;;;;;5033140;28;20164;-77
2022/07/05 03:15:17;;;;;;;2.93;1.70;;;14.30;99.90;;;;;;5015157;28;20176;-76
2022/07/05 03:17:42;;;;;;;5.60;1.93;;;14.30;99.90;;;;;;5033413;28;20180;-76
2022/07/05 03:20:08;;;;;;;1.77;1.53;;;14.20;99.90;;;;;;5033082;28;20586;-77
2022/07/05 03:22:34;;;;;;;2.90;1.77;;;14.20;99.90;;;;;;5035310;28;20565;-77
2022/07/05 03:24:59;;;;;;;4.80;1.77;;;14.20;99.90;;;;;;5037075;28;20172;-77
2022/07/05 03:27:25;;;;;;;4.40;2.00;;;14.20;99.90;;;;;;5037132;28;20195;-77
2022/07/05 03:29:50;;;;;;;2.30;1.53;;;14.20;99.90;;;;;;5036930;28;20294;-77
2022/07/05 03:32:16;;;;;;;2.43;2.07;;;14.20;99.90;;;;;;5037860;28;20175;-76
2022/07/05 03:34:41;;;;;;;3.47;1.40;;;14.10;99.90;;;;;;5038759;28;20204;-76
2022/07/05 03:37:07;;;;;;;3.47;1.90;;;14.00;99.90;;;;;;5038948;28;20211;-76
2022/07/05 03:39:32;;;;;;;3.93;2.00;;;14.10;99.90;;;;;;5037566;28;20192;-76
2022/07/05 03:41:58;;;;;;;1.70;1.50;;;14.00;99.90;;;;;;5036768;28;20176;-76
2022/07/05 03:44:23;;;;;;;2.10;1.50;;;14.00;99.90;;;;;;5036678;28;20546;-76
2022/07/05 03:46:49;;;;;;;1.87;1.60;;;14.00;99.90;;;;;;5018966;28;20678;-76
2022/07/05 03:49:14;;;;;;;2.80;1.60;;;14.00;99.90;;;;;;5036665;28;20195;-76
2022/07/05 03:51:40;;;;;;;2.63;1.80;;;13.90;99.90;;;;;;5036554;28;20165;-76
2022/07/05 03:54:06;;;;;;;4.47;2.00;;;13.90;99.90;;;;;;5036425;28;20180;-77
2022/07/05 03:56:31;;;;;;;1.70;1.60;;;13.90;99.90;;;;;;5036443;28;20164;-77
2022/07/05 03:58:57;;;;;;;3.70;1.97;;;13.90;99.90;;;;;;5036549;28;20196;-77
2022/07/05 04:01:22;;;;;;;2.37;1.70;;;13.90;99.90;;;;;;5036414;28;20175;-77
2022/07/05 04:03:48;;;;;;;2.67;1.67;;;13.90;99.90;;;;;;5036561;28;20222;-76
2022/07/05 04:06:14;;;;;;;1.93;1.77;;;13.90;99.90;;;;;;5036143;28;20658;-76
2022/07/05 04:08:39;;;;;;;8.13;1.63;;;13.90;99.90;;;;;;5018472;28;20192;-76
2022/07/05 04:11:05;;;;;;;4.33;1.90;;;13.90;99.90;;;;;;5036752;28;20172;-77
2022/07/05 04:13:31;;;;;;;2.80;1.83;;;13.90;99.90;;;;;;5018368;28;20176;-77
2022/07/05 04:15:56;;;;;;;4.00;1.63;;;13.90;99.90;;;;;;5036648;28;20187;-76
2022/07/05 04:18:22;;;;;;;2.77;1.80;;;14.00;99.90;;;;;;5036228;28;20176;-77
2022/07/05 04:20:48;;;;;;;3.37;1.80;;;13.90;99.90;;;;;;5018247;28;20176;-77
2022/07/05 04:23:14;;;;;;;3.10;1.70;;;13.90;99.90;;;;;;5018318;28;20191;-76
2022/07/05 04:25:39;;;;;;;3.40;1.80;;;13.90;99.90;;;;;;5036402;28;20173;-75
2022/07/05 04:28:05;;;;;;;2.10;1.90;;;13.80;99.90;;;;;;5035733;28;20207;-76
2022/07/05 04:30:30;;;;;;;5.93;1.80;;;13.90;99.90;;;;;;5035571;28;20688;-76
2022/07/05 04:32:57;;;;;;;4.10;1.63;;;13.90;99.90;;;;;;5017303;28;20549;-77
2022/07/05 04:35:23;;;;;;;4.53;1.80;;;13.90;99.90;;;;;;5035693;28;20179;-77
2022/07/05 04:37:49;;;;;;;3.73;1.83;;;13.80;99.90;;;;;;5018148;28;20180;-77
2022/07/05 04:40:15;;;;;;;2.20;1.70;;;13.90;99.90;;;;;;5035536;28;20200;-77
2022/07/05 04:42:41;;;;;;;3.00;1.70;;;13.80;99.90;;;;;;5035653;28;20172;-76
2022/07/05 04:45:07;;;;;;;4.10;1.70;;;13.80;99.90;;;;;;5035677;28;20665;-76
2022/07/05 04:47:34;;;;;;;2.73;2.00;;;13.80;99.90;;;;;;5035746;28;20218;-77
2022/07/05 04:50:00;;;;;;;2.07;1.50;;;13.80;99.90;;;;;;5017666;28;20200;-77
2022/07/05 04:52:26;;;;;;;2.70;1.83;;;13.80;99.90;;;;;;5035434;28;20263;-76
2022/07/05 04:54:52;;;;;;;2.20;1.90;;;13.80;99.90;;;;;;5035299;28;20199;-77
2022/07/05 04:57:18;;;;;;;2.07;1.27;;;13.80;99.90;;;;;;5017629;28;20208;-76
2022/07/05 04:59:43;;;;;;;5.33;1.70;;;13.70;99.90;;;;;;5035317;28;20205;-76
2022/07/05 05:02:09;;;;;;;1.60;1.50;;;13.80;99.90;;;;;;5017507;28;20230;-77
2022/07/05 05:04:35;;;;;;;3.33;1.90;;;13.70;99.90;;;;;;5017562;28;20184;-77
2022/07/05 05:07:01;;;;;;;2.23;1.80;;;13.70;99.90;;;;;;5035125;28;20208;-78
2022/07/05 05:09:26;;;;;;;2.27;1.53;;;13.70;99.90;;;;;;5017316;28;20214;-77
2022/07/05 05:11:52;;;;;;;1.97;1.60;;;13.80;99.90;;;;;;5035060;28;20549;-76
2022/07/05 05:14:17;;;;;;;2.00;1.57;;;13.80;99.90;;;;;;5034990;28;20710;-77
2022/07/05 05:16:43;;;;;;;1.60;1.50;;;13.90;99.90;;;;;;5017329;28;20263;-77
2022/07/05 05:19:08;;;;;;;1.90;1.47;;;13.90;99.90;;;;;;5034878;28;20276;-77
2022/07/05 05:21:34;;;;;;;2.90;1.70;;;13.80;99.90;;;;;;5017103;28;20196;-77
2022/07/05 05:23:59;;;;;;;1.70;1.40;;;14.00;99.90;;;;;;5034735;28;20665;-77
2022/07/05 05:26:25;;;;;;;2.33;1.70;;;14.00;99.90;;;;;;5034610;28;20176;-77
2022/07/05 05:28:51;;;;;;;3.27;1.40;;;14.00;99.90;;;;;;5034307;28;20208;-77
2022/07/05 05:31:17;;;;;;;1.93;1.80;;;14.10;99.90;;;;;;5042420;22;20228;-76
2022/07/05 05:33:43;;;;;;;2.00;1.80;;;14.10;99.90;;;;;;5034858;28;20172;-74
2022/07/05 05:36:09;;;;;;;1.93;1.73;;;14.20;99.90;;;;;;5034917;28;20700;-75
2022/07/05 05:38:34;;;;;;;1.53;1.43;;;14.20;99.90;;;;;;5034784;28;20195;-75
2022/07/05 05:41:00;;;;;;;2.07;1.60;;;14.30;99.90;;;;;;5034531;28;20573;-76
2022/07/05 05:43:26;;;;;;;1.80;1.30;;;14.30;99.90;;;;;;5034475;28;20214;-75
2022/07/05 05:45:51;;;;;;;1.40;1.17;;;14.40;99.90;;;;;;5016710;28;20250;-74
2022/07/05 05:48:18;;;;;;;3.50;1.90;;;14.50;99.90;;;;;;5016683;28;20196;-75
2022/07/05 05:50:43;;;;;;;1.57;1.43;;;14.50;99.90;;;;;;5034639;28;20189;-75
2022/07/05 05:53:09;;;;;;;2.60;1.30;;;14.60;99.90;;;;;;5016806;28;20221;-75
2022/07/05 05:55:35;;;;;;;4.73;1.83;;;14.70;99.90;;;;;;5016522;28;20176;-75
2022/07/05 05:58:20;;;;;;;4.13;1.80;;;14.80;99.90;;;;;;5034293;28;20251;-75
2022/07/05 06:00:51;;;;;;;4.20;2.53;;;15.00;99.90;;;;;;5016457;28;20716;-75
2022/07/05 06:03:18;;;;;;;2.73;2.23;;;15.10;99.90;;;;;;5016566;28;20171;-75
2022/07/05 06:05:44;;;;;;;2.53;2.23;;;15.20;99.90;;;;;;5016426;28;20183;-74
2022/07/05 06:08:09;;;;;;;3.63;2.40;;;15.30;99.90;;;;;;5034017;28;20199;-75
2022/07/05 06:10:35;;;;;;;3.53;2.47;;;15.50;99.90;;;;;;5033992;28;20548;-75
2022/07/05 06:13:03;;;;;;;3.90;2.00;;;15.60;99.90;;;;;;5016447;28;20205;-75
2022/07/05 06:15:29;;;;;;;4.27;2.10;;;15.60;99.90;;;;;;5033930;28;20192;-75
2022/07/05 06:17:55;;;;;;;6.47;2.03;;;15.70;99.90;;;;;;5016229;28;20172;-75
2022/07/05 06:20:23;;;;;;;3.47;1.90;;;15.80;99.90;;;;;;5033818;28;20666;-75
2022/07/05 06:22:49;;;;;;;3.00;1.60;;;15.80;99.90;;;;;;5033840;28;20575;-74
2022/07/05 06:25:15;;;;;;;3.37;1.83;;;15.80;99.90;;;;;;5015982;28;20179;-75
2022/07/05 06:27:46;;;;;;;5.93;2.00;;;15.90;99.90;;;;;;5033673;28;20286;-75
2022/07/05 06:30:15;;;;;;;2.27;1.60;;;15.90;99.90;;;;;;5033487;28;20231;-75
2022/07/05 06:32:42;;;;;;;2.53;1.60;;;15.90;99.90;;;;;;5033999;28;20149;-75
2022/07/05 06:35:09;;;;;;;4.93;2.60;;;15.90;99.90;;;;;;5033510;28;20252;-74
2022/07/05 06:37:44;;;;;;;4.27;1.80;;;16.00;99.90;;;;;;5033554;28;20646;-75
2022/07/05 06:40:12;;;;;;;2.20;1.50;;;16.00;99.90;;;;;;5033505;28;20191;-75
2022/07/05 06:42:38;;;;;;;3.10;1.80;;;16.10;99.90;;;;;;5033498;28;20168;-75
2022/07/05 06:45:06;;;;;;;5.40;1.43;;;16.10;99.90;;;;;;5033421;28;20542;-75
2022/07/05 06:47:32;;;;;;;4.63;1.60;;;16.20;99.90;;;;;;5033516;28;20196;-74
2022/07/05 06:49:58;;;;;;;2.13;1.40;;;16.20;99.90;;;;;;5033283;28;20283;-75
2022/07/05 06:52:24;;;;;;;3.73;1.60;;;16.30;99.90;;;;;;5015667;28;20175;-75
2022/07/05 06:54:49;;;;;;;3.67;2.00;;;16.40;99.90;;;;;;5033225;28;20646;-74
2022/07/05 06:57:19;;;;;;;3.57;1.80;;;16.40;99.90;;;;;;5015195;28;20176;-75
2022/07/05 06:59:45;;;;;;;4.17;1.50;;;16.50;99.90;;;;;;5033282;28;20179;-74
2022/07/05 07:02:10;;;;;;;3.30;2.03;;;16.50;99.90;;;;;;5015420;28;20184;-75
2022/07/05 07:04:36;;;;;;;4.33;1.80;;;16.60;99.90;;;;;;5015507;28;20263;-75
2022/07/05 07:07:01;;;;;;;4.83;2.30;;;16.70;99.90;;;;;;5033263;28;20199;-75
2022/07/05 07:09:27;;;;;;;3.37;2.00;;;16.80;99.90;;;;;;5033085;28;20165;-75
2022/07/05 07:11:53;;;;;;;5.20;2.30;;;16.90;99.90;;;;;;5015257;28;20271;-74
2022/07/05 07:14:18;;;;;;;4.30;2.00;;;17.00;99.90;;;;;;5033078;28;20188;-75
2022/07/05 07:16:44;;;;;;;2.10;1.73;;;17.00;99.90;;;;;;5015385;28;20183;-74
2022/07/05 07:19:09;;;;;;;4.13;1.47;;;17.10;99.90;;;;;;5033037;28;20186;-75
2022/07/05 07:21:35;;;;;;;5.43;1.83;;;17.20;99.90;;;;;;5033046;28;20628;-75
2022/07/05 07:24:01;;;;;;;4.43;1.83;;;17.30;99.90;;;;;;5033242;28;20177;-75
2022/07/05 07:26:27;;;;;;;4.27;2.10;;;17.40;99.90;;;;;;5032941;28;20256;-74
2022/07/05 07:28:52;;;;;;;6.53;2.20;;;17.60;99.90;;;;;;5032968;28;20179;-74
2022/07/05 07:31:18;;;;;;;6.40;2.63;;;17.70;99.90;;;;;;5014940;28;20215;-75
2022/07/05 07:33:43;;;;;;;5.83;2.10;;;17.80;99.90;;;;;;5015123;28;20169;-74
2022/07/05 07:36:09;;;;;;;8.07;2.67;;;18.00;99.90;;;;;;5032972;28;20211;-74
2022/07/05 07:38:34;;;;;;;5.93;2.30;;;18.10;99.90;;;;;;5015229;28;20199;-75
2022/07/05 07:41:00;;;;;;;7.63;2.80;;;18.20;99.90;;;;;;5015090;28;20192;-74
2022/07/05 07:43:26;;;;;;;9.23;2.90;;;18.30;99.90;;;;;;5015060;28;20176;-74
2022/07/05 07:45:52;;;;;;;7.63;2.50;;;18.50;99.90;;;;;;5032862;28;20230;-75
2022/07/05 07:48:18;;;;;;;4.57;2.40;;;18.60;99.90;;;;;;5032903;28;20191;-74
2022/07/05 07:50:44;;;;;;;5.27;2.03;;;18.60;99.90;;;;;;5032641;28;20601;-74
2022/07/05 07:53:10;;;;;;;4.10;2.00;;;18.80;99.90;;;;;;5014920;28;20200;-74
2022/07/05 07:55:35;;;;;;;5.47;2.30;;;18.80;99.90;;;;;;5014863;28;20176;-74
2022/07/05 07:58:01;;;;;;;2.37;1.80;;;19.00;99.90;;;;;;5032691;28;20172;-75
2022/07/05 08:00:28;;;;;;;4.33;2.53;;;19.00;99.90;;;;;;5032566;28;20192;-75
2022/07/05 08:02:53;;;;;;;3.47;2.30;;;19.10;99.90;;;;;;5014806;28;20176;-74
2022/07/05 08:05:19;;;;;;;4.23;2.40;;;19.10;99.90;;;;;;5032573;28;20184;-75
2022/07/05 08:07:44;;;;;;;3.20;1.90;;;19.10;99.90;;;;;;5014857;28;20199;-75
2022/07/05 08:10:10;;;;;;;3.10;1.87;;;19.10;99.90;;;;;;5018031;28;20287;-74
2022/07/05 08:12:35;;;;;;;2.93;1.40;;;19.10;99.90;;;;;;5036309;28;20184;-75
2022/07/05 08:15:01;;;;;;;3.07;1.87;;;19.10;99.90;;;;;;5018551;28;20176;-74
2022/07/05 08:17:27;;;;;;;6.60;2.80;;;19.20;99.90;;;;;;5018460;28;20187;-74
2022/07/05 08:22:36;;;;;;;4.50;1.83;;;19.40;99.90;;;;;;5036359;28;20163;-75
2022/07/05 08:25:02;;;;;;;5.60;1.83;;;19.50;99.90;;;;;;5036144;28;20172;-75
2022/07/05 08:27:28;;;;;;;5.97;2.10;;;19.60;99.90;;;;;;5035896;28;20220;-74
2022/07/05 08:29:53;;;;;;;4.90;1.80;;;19.60;99.90;;;;;;5018148;28;20654;-75
2022/07/05 08:32:19;;;;;;;3.17;1.50;;;19.70;99.90;;;;;;5036195;28;20175;-74
2022/07/05 08:34:45;;;;;;;4.57;1.67;;;19.80;99.90;;;;;;5036118;28;20184;-74
2022/07/05 08:37:10;;;;;;;4.93;1.53;;;19.70;99.90;;;;;;5035858;28;20176;-74
2022/07/05 08:39:36;;;;;;;2.73;1.57;;;19.80;99.90;;;;;;5018135;28;20584;-74
2022/07/05 08:42:02;;;;;;;4.60;1.80;;;19.80;80.20;;;;;;5035664;28;20196;-75
2022/07/05 08:44:30;;;;;;;2.67;1.53;;;20.00;87.80;;;;;;5035666;28;20255;-75
2022/07/05 08:46:57;;;;;;;6.57;1.80;;;20.20;99.90;;;;;;5017841;28;20299;-75
2022/07/05 08:49:27;;;;;;;3.57;1.70;;;20.20;99.90;;;;;;5035832;28;20179;-75
2022/07/05 08:51:54;;;;;;;4.00;1.40;;;20.30;99.90;;;;;;5017790;28;20283;-75
2022/07/05 08:54:22;;;;;;;5.50;1.50;;;20.50;99.90;;;;;;5017639;28;20650;-75
2022/07/05 08:56:48;;;;;;;2.40;1.30;;;20.50;99.90;;;;;;5035828;28;20176;-75
2022/07/05 08:59:14;;;;;;;2.37;1.40;;;20.60;99.90;;;;;;5035820;28;20168;-75
2022/07/05 09:01:39;;;;;;;7.43;1.93;;;20.60;99.90;;;;;;5035273;28;20253;-75
2022/07/05 09:04:07;;;;;;;4.80;1.80;;;20.50;99.90;;;;;;5035346;28;20176;-75
2022/07/05 09:06:37;;;;;;;6.17;1.67;;;20.50;99.90;;;;;;5035222;28;20168;-75
2022/07/05 09:09:03;;;;;;;4.53;1.40;;;20.70;99.90;;;;;;5035323;28;20239;-75
2022/07/05 09:11:39;;;;;;;1.80;1.40;;;20.60;99.90;;;;;;5017359;28;20335;-75
2022/07/05 09:14:06;;;;;;;3.27;1.23;;;20.60;99.90;;;;;;5035503;28;20571;-74
2022/07/05 09:16:32;;;;;;;3.50;2.00;;;20.60;99.90;;;;;;5017444;28;20176;-75
2022/07/05 09:19:05;;;;;;;2.93;1.17;;;20.70;1.00;;;;;;5035459;28;20624;-75
2022/07/05 09:21:31;;;;;;;3.93;2.13;;;20.60;1.00;;;;;;5035059;28;20654;-75
2022/07/05 09:24:04;;;;;;;6.03;2.67;;;20.60;1.00;;;;;;5035048;28;20168;-75
2022/07/05 09:26:49;;;;;;;8.10;2.23;;;20.70;1.00;;;;;;5034829;28;20164;-75
2022/07/05 09:29:18;;;;;;;3.53;1.80;;;20.80;1.00;;;;;;5035072;28;20152;-75
2022/07/05 09:31:48;;;;;;;3.23;1.10;;;20.80;1.00;;;;;;5034701;28;20593;-75
2022/07/05 09:34:19;;;;;;;4.57;1.60;;;20.80;1.00;;;;;;5017111;28;20160;-75
2022/07/05 09:37:01;;;;;;;3.80;1.00;;;20.80;1.00;;;;;;5034968;28;20183;-74
2022/07/05 09:39:30;;;;;;;1.83;0.93;;;20.80;1.00;;;;;;5016860;28;20187;-75
2022/07/05 09:42:28;;;;;;;1.30;0.80;;;20.90;1.00;;;;;;5016785;28;20682;-75
2022/07/05 09:44:57;;;;;;;3.63;1.00;;;21.00;1.00;;;;;;4990912;28;20326;-75
2022/07/05 09:47:24;;;;;;;5.43;1.10;;;21.10;1.00;;;;;;5016628;28;20250;-74
2022/07/05 09:49:51;;;;;;;4.07;1.40;;;21.10;1.00;;;;;;5034912;28;20180;-75
2022/07/05 09:52:35;;;;;;;4.03;1.13;;;21.10;1.00;;;;;;5016911;28;20557;-75
2022/07/05 09:55:10;;;;;;;3.60;1.70;;;21.40;1.00;;;;;;5034499;28;20164;-75
2022/07/05 09:57:40;;;;;;;2.07;1.20;;;21.60;1.00;;;;;;5034458;28;20179;-74
2022/07/05 10:00:08;;;;;;;1.27;1.03;;;21.70;1.00;;;;;;5034325;28;20597;-75
2022/07/05 10:02:40;;;;;;;5.20;1.40;;;21.70;1.00;;;;;;5016539;28;20184;-75
2022/07/05 10:05:14;;;;;;;2.17;1.27;;;21.80;1.00;;;;;;5034315;28;20176;-74
2022/07/05 10:07:54;;;;;;;1.70;0.97;;;21.90;1.00;;;;;;5016718;28;20196;-75
2022/07/05 10:10:30;;;;;;;1.37;1.00;;;22.00;1.00;;;;;;5034119;28;20198;-75
2022/07/05 10:12:57;;;;;;;2.30;0.83;;;22.00;1.00;;;;;;5016378;28;20171;-75
2022/07/05 10:15:26;;;;;;;2.57;1.10;;;22.00;1.00;;;;;;5033952;28;20569;-74
2022/07/05 10:17:58;;;;;;;1.70;1.20;;;22.00;1.00;;;;;;5033963;28;20234;-74
2022/07/05 10:20:29;;;;;;;1.90;0.97;;;21.80;1.00;;;;;;5033887;28;20666;-75
2022/07/05 10:22:56;;;;;;;2.30;1.20;;;21.60;1.00;;;;;;5016499;28;20576;-74
2022/07/05 10:25:23;;;;;;;1.47;0.80;;;21.60;1.00;;;;;;5016575;28;20553;-75
2022/07/05 10:27:53;;;;;;;3.50;1.30;;;21.50;1.00;;;;;;5033725;28;20196;-75
2022/07/05 10:30:22;;;;;;;1.87;1.00;;;21.50;1.00;;;;;;5033562;28;20204;-75
2022/07/05 10:32:48;;;;;;;1.07;0.80;;;21.50;1.00;;;;;;5032931;28;20196;-75
2022/07/05 10:35:16;;;;;;;2.77;1.20;;;21.50;99.90;;;;;;5033797;28;20176;-75
2022/07/05 10:37:43;;;;;;;2.13;1.10;;;21.40;99.90;;;;;;5033854;28;20693;-76
2022/07/05 10:40:10;;;;;;;2.73;1.30;;;21.50;99.90;;;;;;5033621;28;20200;-75
2022/07/05 10:42:46;;;;;;;2.90;1.10;;;21.60;99.90;;;;;;5033536;28;20218;-74
2022/07/05 10:45:32;;;;;;;1.50;0.90;;;21.60;99.90;;;;;;5015829;28;20262;-74
2022/07/05 10:48:10;;;;;;;0.93;0.60;;;21.70;99.90;;;;;;5033462;28;20211;-74
2022/07/05 10:50:58;;;;;;;3.27;0.97;;;22.00;99.90;;;;;;5033429;28;20191;-75
2022/07/05 10:53:31;;;;;;;1.43;1.00;;;22.10;99.90;;;;;;5033413;28;20248;-74
2022/07/05 10:56:14;;;;;;;2.80;0.90;;;22.10;99.90;;;;;;5015564;28;20215;-75
2022/07/05 10:58:47;;;;;;;2.50;0.90;;;22.00;99.90;;;;;;5015486;28;20235;-75
2022/07/05 11:01:18;;;;;;;1.40;1.30;;;22.00;99.90;;;;;;5015478;28;20207;-76
2022/07/05 11:03:58;;;;;;;2.00;1.20;;;22.00;99.90;;;;;;5033287;28;20161;-74
2022/07/05 11:06:26;;;;;;;2.03;1.03;;;22.00;99.90;;;;;;5015441;28;20222;-76
2022/07/05 11:09:00;;;;;;;3.20;1.20;;;22.10;99.90;;;;;;5015470;28;20215;-75
2022/07/05 11:11:40;;;;;;;2.43;1.20;;;22.40;99.90;;;;;;5033158;28;20199;-75
2022/07/05 11:14:29;;;;;;;1.37;0.80;;;22.40;99.90;;;;;;5015433;28;20263;-75
2022/07/05 11:17:15;;;;;;;1.53;1.10;;;22.40;99.90;;;;;;5033428;28;20157;-75
2022/07/05 11:20:20;;;;;;;1.00;0.87;;;22.30;99.90;;;;;;5033309;28;20156;-75
2022/07/05 11:23:02;;;;;;;2.20;0.90;;;22.20;99.90;;;;;;5015311;28;20171;-74
2022/07/05 11:25:30;;;;;;;2.37;1.40;;;22.20;99.90;;;;;;5014235;28;20181;-75
2022/07/05 11:28:00;;;;;;;2.27;1.30;;;22.00;99.90;;;;;;5032921;28;20283;-74
2022/07/05 11:30:26;;;;;;;1.43;1.00;;;21.90;99.90;;;;;;5016454;28;20231;-74
2022/07/05 11:32:51;;;;;;;1.23;0.70;;;21.90;99.90;;;;;;5033024;28;20173;-75
2022/07/05 11:35:19;;;;;;;1.70;1.10;;;22.10;99.90;;;;;;5033086;28;20173;-75
2022/07/05 11:38:07;;;;;;;1.80;1.07;;;22.20;99.90;;;;;;5032910;28;20176;-74
2022/07/05 11:40:35;;;;;;;2.90;1.00;;;22.10;99.90;;;;;;5032751;28;20188;-75
2022/07/05 11:43:02;;;;;;;5.37;1.87;;;22.10;99.90;;;;;;5034465;28;20544;-74
2022/07/05 11:45:28;;;;;;;1.10;0.80;;;22.00;99.90;;;;;;5036809;28;20586;-74
2022/07/05 11:47:56;;;;;;;2.40;1.07;;;22.00;99.90;;;;;;5037016;28;20564;-74
2022/07/05 11:50:26;;;;;;;2.63;0.90;;;22.00;99.90;;;;;;5036690;28;20193;-74
2022/07/05 11:52:52;;;;;;;5.33;1.03;;;22.20;99.90;;;;;;5036231;28;20264;-75
2022/07/05 11:55:18;;;;;;;1.80;1.10;;;22.30;99.90;;;;;;5035895;28;20251;-74
2022/07/05 11:57:52;;;;;;;1.40;1.10;;;22.40;99.90;;;;;;5036786;28;20272;-75
2022/07/05 12:00:30;;;;;;;7.63;1.80;;;22.60;99.90;;;;;;5036638;28;20784;-74
2022/07/05 12:02:56;;;;;;;2.03;1.40;;;22.70;99.90;;;;;;5036473;28;20176;-75
2022/07/05 12:05:21;;;;;;;3.37;0.87;;;22.80;99.90;;;;;;5018854;28;20173;-75
2022/07/05 12:07:51;;;;;;;2.50;1.03;;;22.80;99.90;;;;;;5036410;28;20224;-74
2022/07/05 12:13:08;;;;;;;0.90;0.90;;;22.60;99.90;;;;;;5036985;28;20533;-75
2022/07/05 12:15:35;;;;;;;2.13;0.93;;;22.50;99.90;;;;;;5018510;28;20195;-74
2022/07/05 12:18:03;;;;;;;1.90;0.90;;;22.50;11.00;;;;;;5036295;28;20671;-74
2022/07/05 12:20:34;;;;;;;2.70;1.17;;;22.80;1.00;;;;;;5036117;28;20196;-75
2022/07/05 12:23:00;;;;;;;2.03;1.00;;;23.00;1.00;;;;;;5036366;28;20165;-75
2022/07/05 12:25:28;;;;;;;4.00;0.87;;;23.10;99.90;;;;;;5036557;28;20654;-74
2022/07/05 12:27:55;;;;;;;1.83;0.90;;;23.10;99.90;;;;;;5036020;28;20188;-75
2022/07/05 12:30:22;;;;;;;4.70;1.03;;;23.20;99.90;;;;;;5035843;28;20203;-75
2022/07/05 12:33:14;;;;;;;1.10;0.87;;;23.30;99.90;;;;;;5036248;28;20631;-75
2022/07/05 12:35:44;;;;;;;1.87;1.27;;;23.40;99.90;;;;;;5032368;28;20263;-74
2022/07/05 12:38:19;;;;;;;1.70;0.90;;;23.30;99.90;;;;;;5035822;28;20184;-75
2022/07/05 12:40:56;;;;;;;4.00;1.10;;;23.10;99.90;;;;;;5035738;28;20183;-75
2022/07/05 12:43:21;;;;;;;1.90;0.97;;;22.90;99.90;;;;;;5035866;28;20172;-75
2022/07/05 12:46:20;;;;;;;2.97;1.00;;;22.90;99.90;;;;;;5036126;28;20547;-76
2022/07/05 12:48:53;;;;;;;1.30;0.90;;;22.80;99.90;;;;;;4992020;28;20216;-75
2022/07/05 12:51:33;;;;;;;2.53;1.20;;;22.70;99.90;;;;;;5035483;28;20192;-76
2022/07/05 12:59:38;;;;;;;2.27;1.10;;;22.60;99.90;;;;;;5035524;28;20673;-76
2022/07/05 13:02:04;;;;;;;2.47;1.10;;;22.90;99.90;;;;;;5035324;28;20188;-75
2022/07/05 13:04:29;;;;;;;3.63;2.03;;;23.00;99.90;;;;;;5035590;28;20255;-76